createdAt,value
2019-03-09T00:02:21.362Z,81.39
2019-03-09T00:04:53.735Z,81.54
2019-03-09T00:07:26.201Z,81.70
2019-03-09T00:09:58.575Z,82.14
2019-03-09T00:12:30.946Z,82.23
2019-03-09T00:15:02.929Z,82.36
2019-03-09T00:17:35.796Z,82.53
2019-03-09T00:20:09.812Z,82.55
2019-03-09T00:22:43.725Z,82.44
2019-03-09T00:25:27.142Z,82.55
2019-03-09T00:28:07.099Z,82.61
2019-03-09T00:30:41.110Z,82.44
2019-03-09T00:33:13.028Z,82.40
2019-03-09T00:35:45.445Z,82.33
2019-03-09T00:38:17.816Z,82.25
2019-03-09T00:40:50.291Z,82.22
2019-03-09T00:43:22.671Z,82.37
2019-03-09T00:45:55.027Z,82.39
2019-03-09T00:48:27.407Z,82.44
2019-03-09T00:50:59.779Z,82.62
2019-03-09T00:53:32.450Z,82.70
2019-03-09T00:56:04.841Z,83.20
2019-03-09T00:58:37.200Z,83.31
2019-03-09T01:01:09.188Z,83.42
2019-03-09T01:03:41.545Z,83.53
2019-03-09T01:06:13.906Z,83.66
2019-03-09T01:08:46.271Z,83.77
2019-03-09T01:11:18.653Z,83.98
2019-03-09T01:13:51.029Z,83.91
2019-03-09T01:16:23.387Z,83.94
2019-03-09T01:18:55.313Z,83.96
2019-03-09T01:21:27.787Z,84.09
2019-03-09T01:24:00.103Z,84.11
2019-03-09T01:26:32.579Z,84.07
2019-03-09T01:29:04.947Z,83.99
2019-03-09T01:31:37.174Z,83.86
2019-03-09T01:34:09.493Z,83.56
2019-03-09T01:36:41.860Z,83.52
2019-03-09T01:39:14.227Z,83.27
2019-03-09T01:41:46.586Z,83.35
2019-03-09T01:44:19.282Z,83.33
2019-03-09T01:46:51.665Z,83.18
2019-03-09T01:49:24.032Z,83.06
2019-03-09T01:51:56.405Z,83.06
2019-03-09T01:54:28.760Z,83.14
2019-03-09T01:57:01.140Z,83.13
2019-03-09T01:59:33.512Z,83.11
2019-03-09T02:02:05.981Z,83.07
2019-03-09T02:04:38.353Z,82.82
2019-03-09T02:07:11.343Z,82.94
2019-03-09T02:09:43.712Z,82.80
2019-03-09T02:12:16.081Z,82.77
2019-03-09T02:14:48.461Z,82.77
2019-03-09T02:17:20.827Z,82.56
2019-03-09T02:19:53.096Z,82.52
2019-03-09T02:22:26.903Z,82.55
2019-03-09T02:24:59.170Z,82.54
2019-03-09T02:27:31.555Z,82.45
2019-03-09T02:30:03.942Z,82.33
2019-03-09T02:32:36.401Z,82.34
2019-03-09T02:35:17.364Z,82.28
2019-03-09T02:37:49.751Z,82.32
2019-03-09T02:40:23.721Z,82.38
2019-03-09T02:42:55.756Z,82.37
2019-03-09T02:45:31.356Z,82.58
2019-03-09T02:48:03.347Z,82.56
2019-03-09T02:50:37.227Z,82.67
2019-03-09T02:53:09.701Z,82.72
2019-03-09T02:55:41.629Z,82.76
2019-03-09T02:58:14.035Z,82.72
2019-03-09T03:00:47.927Z,82.66
2019-03-09T03:03:20.332Z,82.78
2019-03-09T03:05:52.697Z,82.88
2019-03-09T03:08:25.007Z,82.91
2019-03-09T03:10:57.343Z,83.02
2019-03-09T03:13:29.338Z,82.92
2019-03-09T03:16:01.662Z,83.18
2019-03-09T03:18:34.037Z,83.15
2019-03-09T03:21:06.416Z,83.24
2019-03-09T03:23:38.789Z,83.15
2019-03-09T03:26:11.163Z,82.99
2019-03-09T03:28:44.046Z,82.97
2019-03-09T03:31:16.214Z,82.84
2019-03-09T03:33:48.574Z,82.62
2019-03-09T03:36:20.975Z,82.60
2019-03-09T03:38:53.317Z,82.46
2019-03-09T03:41:25.760Z,82.30
2019-03-09T03:43:58.119Z,82.00
2019-03-09T03:46:32.190Z,81.92
2019-03-09T03:49:04.206Z,82.00
2019-03-09T03:51:36.521Z,81.91
2019-03-09T03:54:08.880Z,81.62
2019-03-09T03:56:41.260Z,81.72
2019-03-09T03:59:13.634Z,81.62
2019-03-09T04:01:46.001Z,81.51
2019-03-09T04:04:18.367Z,81.37
2019-03-09T04:06:50.752Z,81.31
2019-03-09T04:09:22.976Z,81.04
2019-03-09T04:11:55.129Z,80.81
2019-03-09T04:14:27.549Z,80.97
2019-03-09T04:16:59.820Z,80.85
2019-03-09T04:19:32.264Z,80.93
2019-03-09T04:22:04.703Z,80.67
2019-03-09T04:24:38.594Z,80.92
2019-03-09T04:27:12.071Z,80.81
2019-03-09T04:29:44.455Z,80.76
2019-03-09T04:32:16.817Z,80.78
2019-03-09T04:34:48.813Z,80.68
2019-03-09T04:37:21.150Z,80.50
2019-03-09T04:39:53.519Z,80.24
2019-03-09T04:42:25.894Z,79.85
2019-03-09T04:44:58.583Z,79.53
2019-03-09T04:47:32.479Z,79.60
2019-03-09T04:50:07.980Z,79.75
2019-03-09T04:52:40.306Z,79.43
2019-03-09T04:55:12.283Z,79.51
2019-03-09T04:57:44.637Z,79.72
2019-03-09T05:00:17.825Z,79.50
2019-03-09T05:02:49.784Z,79.73
2019-03-09T05:05:22.156Z,80.37
2019-03-09T05:08:19.447Z,80.90
2019-03-09T05:10:58.158Z,82.50
2019-03-09T05:13:36.538Z,83.35
2019-03-09T05:16:08.931Z,84.58
2019-03-09T05:18:41.298Z,85.55
2019-03-09T05:21:13.670Z,85.82
2019-03-09T05:23:46.044Z,86.26
2019-03-09T05:26:18.242Z,86.71
2019-03-09T05:28:50.675Z,86.87
2019-03-09T05:31:22.668Z,86.84
2019-03-09T05:33:55.110Z,86.98
2019-03-09T05:36:27.476Z,87.19
2019-03-09T05:39:00.511Z,87.43
2019-03-09T05:41:34.376Z,87.49
2019-03-09T05:44:06.293Z,87.56
2019-03-09T05:46:38.718Z,87.43
2019-03-09T05:49:13.027Z,87.54
2019-03-09T05:51:47.048Z,87.78
2019-03-09T05:54:20.076Z,88.03
2019-03-09T05:56:52.071Z,87.70
2019-03-09T05:59:24.460Z,87.58
2019-03-09T06:01:56.833Z,87.50
2019-03-09T06:04:28.972Z,87.42
2019-03-09T06:07:01.474Z,87.33
2019-03-09T06:09:33.848Z,87.28
2019-03-09T06:12:06.218Z,87.16
2019-03-09T06:14:38.603Z,87.15
2019-03-09T06:17:10.965Z,87.00
2019-03-09T06:19:43.347Z,86.68
2019-03-09T06:22:15.815Z,86.25
2019-03-09T06:24:48.391Z,85.89
2019-03-09T06:27:20.762Z,85.52
2019-03-09T06:29:53.778Z,85.18
2019-03-09T06:32:40.556Z,84.98
2019-03-09T06:35:24.701Z,84.78
2019-03-09T06:38:10.701Z,84.88
2019-03-09T06:40:43.070Z,83.83
2019-03-09T06:43:15.438Z,83.44
2019-03-09T06:45:47.808Z,83.20
2019-03-09T06:48:19.800Z,82.58
2019-03-09T06:50:53.589Z,83.07
2019-03-09T06:53:25.584Z,81.67
2019-03-09T06:55:57.960Z,81.35
2019-03-09T06:58:30.322Z,81.18
2019-03-09T07:01:05.866Z,80.67
2019-03-09T07:03:38.249Z,80.66
2019-03-09T07:06:10.561Z,79.43
2019-03-09T07:08:42.494Z,79.53
2019-03-09T07:11:14.856Z,78.66
2019-03-09T07:13:52.882Z,77.99
2019-03-09T07:16:21.227Z,77.05
2019-03-09T07:18:53.599Z,76.74
2019-03-09T07:21:25.983Z,76.45
2019-03-09T07:23:57.924Z,75.76
2019-03-09T07:26:30.330Z,75.67
2019-03-09T07:29:02.676Z,74.28
2019-03-09T07:31:35.058Z,72.86
2019-03-09T07:34:22.658Z,73.08
2019-03-09T07:36:55.051Z,70.99
2019-03-09T07:39:27.427Z,71.02
2019-03-09T07:41:59.802Z,71.51
2019-03-09T07:44:32.191Z,69.37
2019-03-09T07:47:04.586Z,69.49
2019-03-09T07:49:36.916Z,69.26
2019-03-09T07:52:32.731Z,69.12
2019-03-09T07:55:07.064Z,68.99
2019-03-09T07:57:38.983Z,68.77
2019-03-09T08:00:18.143Z,68.99
2019-03-09T08:02:50.408Z,68.64
2019-03-09T08:05:23.294Z,68.91
2019-03-09T08:07:55.576Z,68.21
2019-03-09T08:10:31.936Z,68.92
2019-03-09T08:13:05.448Z,68.89
2019-03-09T08:15:37.807Z,68.90
2019-03-09T08:18:10.171Z,69.47
2019-03-09T08:20:42.150Z,70.37
2019-03-09T08:23:14.060Z,71.26
2019-03-09T08:25:46.474Z,71.36
2019-03-09T08:28:19.404Z,72.00
2019-03-09T08:30:51.734Z,72.59
2019-03-09T08:33:24.112Z,73.01
2019-03-09T08:35:56.481Z,73.36
2019-03-09T08:38:28.861Z,74.25
2019-03-09T08:41:01.740Z,75.69
2019-03-09T08:43:34.214Z,76.66
2019-03-09T08:46:06.570Z,76.07
2019-03-09T08:48:38.942Z,77.54
2019-03-09T08:51:11.323Z,78.59
2019-03-09T08:53:43.703Z,78.60
2019-03-09T08:56:15.721Z,78.42
2019-03-09T08:58:48.019Z,79.08
2019-03-09T09:01:20.405Z,80.22
2019-03-09T09:03:52.826Z,79.93
2019-03-09T09:06:25.258Z,80.79
2019-03-09T09:08:57.617Z,81.23
2019-03-09T09:11:29.568Z,81.16
2019-03-09T09:14:01.948Z,83.04
2019-03-09T09:16:34.321Z,82.33
2019-03-09T09:19:06.683Z,81.74
2019-03-09T09:21:39.063Z,81.98
2019-03-09T09:24:11.442Z,83.49
2019-03-09T09:26:43.807Z,84.12
2019-03-09T09:29:16.186Z,83.71
2019-03-09T09:31:48.555Z,82.98
2019-03-09T09:34:20.487Z,82.67
2019-03-09T09:36:52.888Z,83.43
2019-03-09T09:39:25.258Z,83.21
2019-03-09T09:41:59.613Z,84.33
2019-03-09T09:44:33.181Z,84.83
2019-03-09T10:01:28.576Z,85.64
2019-03-09T10:04:00.941Z,86.33
2019-03-09T10:06:32.963Z,86.04
2019-03-09T10:09:07.037Z,86.08
2019-03-09T10:11:40.521Z,85.79
2019-03-09T10:14:12.915Z,86.16
2019-03-09T10:16:45.273Z,86.55
2019-03-09T10:19:17.230Z,86.69
2019-03-09T10:21:49.607Z,87.12
2019-03-09T10:24:21.980Z,87.14
2019-03-09T10:26:54.240Z,86.98
2019-03-09T10:29:26.621Z,87.56
2019-03-09T10:31:58.993Z,87.36
2019-03-09T10:34:31.355Z,87.35
2019-03-09T10:37:03.289Z,87.30
2019-03-09T10:39:35.582Z,87.49
2019-03-09T10:42:07.970Z,87.10
2019-03-09T10:44:40.330Z,87.85
2019-03-09T10:47:12.712Z,87.62
2019-03-09T10:49:45.079Z,87.31
2019-03-09T10:52:17.767Z,86.77
2019-03-09T10:54:50.121Z,86.01
2019-03-09T10:57:22.508Z,85.44
2019-03-09T10:59:54.875Z,83.69
2019-03-09T11:02:27.150Z,83.18
2019-03-09T11:04:59.095Z,83.19
2019-03-09T11:07:31.373Z,82.26
2019-03-09T11:10:07.335Z,82.69
2019-03-09T11:12:39.708Z,83.43
2019-03-09T11:15:12.077Z,83.17
2019-03-09T11:17:45.374Z,83.40
2019-03-09T11:20:20.186Z,83.18
2019-03-09T11:22:53.492Z,83.05
2019-03-09T11:25:25.868Z,82.61
2019-03-09T11:28:15.136Z,82.75
2019-03-09T11:30:47.532Z,82.63
2019-03-09T11:33:19.984Z,82.30
2019-03-09T11:35:52.346Z,82.40
2019-03-09T11:38:24.616Z,82.54
2019-03-09T11:40:58.556Z,81.83
2019-03-09T11:43:30.137Z,81.70
2019-03-09T11:46:02.455Z,81.24
2019-03-09T11:48:34.828Z,81.39
2019-03-09T11:51:07.307Z,80.50
2019-03-09T11:53:39.666Z,78.99
2019-03-09T11:56:12.048Z,77.51
2019-03-09T11:58:44.422Z,77.56
2019-03-09T12:01:16.778Z,75.97
2019-03-09T12:03:49.159Z,75.34
2019-03-09T12:06:21.535Z,72.05
2019-03-09T12:08:53.472Z,68.96
2019-03-09T12:11:25.435Z,66.08
2019-03-09T12:13:57.824Z,64.56
2019-03-09T12:16:30.199Z,60.92
2019-03-09T12:19:02.137Z,60.36
2019-03-09T12:21:34.538Z,59.13
2019-03-09T12:24:16.089Z,56.83
2019-03-09T12:26:40.920Z,55.45
2019-03-09T12:29:13.284Z,54.39
2019-03-09T12:31:46.066Z,54.05
2019-03-09T12:34:18.436Z,51.78
2019-03-09T12:36:50.814Z,55.07
2019-03-09T12:39:23.187Z,55.79
2019-03-09T12:41:55.559Z,56.64
2019-03-09T12:44:27.485Z,54.74
2019-03-09T12:46:59.888Z,53.70
2019-03-09T12:49:32.669Z,54.12
2019-03-09T12:52:05.043Z,52.47
2019-03-09T12:54:37.417Z,51.39
2019-03-09T12:57:09.392Z,51.79
2019-03-09T12:59:42.984Z,52.39
2019-03-09T13:02:15.355Z,51.10
2019-03-09T13:04:47.733Z,48.83
2019-03-09T13:07:19.698Z,49.28
2019-03-09T13:09:52.066Z,51.03
2019-03-09T13:12:24.429Z,51.75
2019-03-09T13:14:56.809Z,48.23
2019-03-09T13:17:29.230Z,48.44
2019-03-09T13:20:01.583Z,46.10
2019-03-09T13:22:35.314Z,43.63
2019-03-09T13:25:08.552Z,41.13
2019-03-09T13:27:41.937Z,40.51
2019-03-09T13:30:23.426Z,39.30
2019-03-09T13:32:55.796Z,39.78
2019-03-09T13:35:28.276Z,38.80
2019-03-09T13:38:00.961Z,37.03
2019-03-09T13:40:33.319Z,37.51
2019-03-09T13:43:05.710Z,37.51
2019-03-09T13:45:38.066Z,37.49
2019-03-09T13:48:10.443Z,41.14
2019-03-09T13:50:42.819Z,38.87
2019-03-09T13:53:15.284Z,38.91
2019-03-09T13:55:47.657Z,39.81
2019-03-09T13:58:19.634Z,38.05
2019-03-09T14:00:51.987Z,37.02
2019-03-09T14:03:24.034Z,37.22
2019-03-09T14:05:56.329Z,38.27
2019-03-09T14:08:28.286Z,41.10
2019-03-09T14:11:00.655Z,42.06
2019-03-09T14:13:33.040Z,44.36
2019-03-09T14:16:05.406Z,45.87
2019-03-09T14:18:37.772Z,47.61
2019-03-09T14:21:10.202Z,47.82
2019-03-09T14:23:42.641Z,45.66
2019-03-09T14:26:14.993Z,48.65
2019-03-09T14:28:47.362Z,48.89
2019-03-09T14:31:19.297Z,49.73
2019-03-09T14:33:51.914Z,49.12
2019-03-09T14:36:24.277Z,48.33
2019-03-09T14:38:56.656Z,47.91
2019-03-09T14:41:29.023Z,47.70
2019-03-09T14:44:01.389Z,48.50
2019-03-09T14:46:33.668Z,47.99
2019-03-09T14:49:07.050Z,48.19
2019-03-09T14:51:39.435Z,48.81
2019-03-09T14:54:11.815Z,48.47
2019-03-09T14:56:44.170Z,48.99
2019-03-09T14:59:16.387Z,49.21
2019-03-09T15:01:48.721Z,49.99
2019-03-09T15:04:21.083Z,50.43
2019-03-09T15:06:53.554Z,47.35
2019-03-09T15:09:25.929Z,47.20
2019-03-09T15:11:58.370Z,45.77
2019-03-09T15:14:30.646Z,45.34
2019-03-09T15:17:03.887Z,46.39
2019-03-09T15:19:36.244Z,48.08
2019-03-09T15:22:08.645Z,49.18
2019-03-09T15:24:41.096Z,51.05
2019-03-09T15:27:13.026Z,51.51
2019-03-09T15:29:45.428Z,51.75
2019-03-09T15:32:17.349Z,52.37
2019-03-09T15:34:49.366Z,52.24
2019-03-09T15:37:21.712Z,52.55
2019-03-09T15:39:54.095Z,52.60
2019-03-09T15:42:27.892Z,52.17
2019-03-09T15:45:00.330Z,52.29
2019-03-09T15:47:32.749Z,52.10
2019-03-09T15:50:07.873Z,52.86
2019-03-09T15:52:39.808Z,52.28
2019-03-09T15:55:12.925Z,52.86
2019-03-09T15:57:45.302Z,52.87
2019-03-09T16:00:25.712Z,53.13
2019-03-09T16:02:58.036Z,53.69
2019-03-09T16:05:30.403Z,54.17
2019-03-09T16:08:02.786Z,54.30
2019-03-09T16:10:35.157Z,54.74
2019-03-09T16:13:07.310Z,54.66
2019-03-09T16:15:39.695Z,55.04
2019-03-09T16:18:11.628Z,54.90
2019-03-09T16:20:44.024Z,55.56
2019-03-09T16:23:16.403Z,54.87
2019-03-09T16:25:48.862Z,55.23
2019-03-09T16:28:21.236Z,56.08
2019-03-09T16:30:53.927Z,56.01
2019-03-09T16:33:26.297Z,56.32
2019-03-09T16:35:58.674Z,56.39
2019-03-09T16:38:31.131Z,56.64
2019-03-09T16:41:03.514Z,56.50
2019-03-09T16:43:35.877Z,56.61
2019-03-09T16:46:08.252Z,57.20
2019-03-09T16:48:40.630Z,57.33
2019-03-09T16:51:13.001Z,57.64
2019-03-09T16:53:45.360Z,57.79
2019-03-09T16:56:17.745Z,58.44
2019-03-09T16:58:50.107Z,61.75
2019-03-09T17:01:22.797Z,63.96
2019-03-09T17:03:55.161Z,68.22
2019-03-09T17:06:28.230Z,69.01
2019-03-09T17:09:01.543Z,73.07
2019-03-09T17:11:35.451Z,77.15
2019-03-09T17:14:07.368Z,76.29
2019-03-09T17:16:42.284Z,78.99
2019-03-09T17:19:15.849Z,80.75
2019-03-09T17:21:48.228Z,82.47
2019-03-09T17:24:20.585Z,82.96
2019-03-09T17:26:54.392Z,83.15
2019-03-09T17:29:26.772Z,82.65
2019-03-09T17:31:59.137Z,83.74
2019-03-09T17:34:31.508Z,83.70
2019-03-09T17:37:03.508Z,84.36
2019-03-09T17:39:35.806Z,84.80
2019-03-09T17:42:08.213Z,84.93
2019-03-09T17:44:40.136Z,84.96
2019-03-09T17:47:12.571Z,84.95
2019-03-09T17:49:44.926Z,85.67
2019-03-09T17:52:17.293Z,85.91
2019-03-09T17:54:49.671Z,85.68
2019-03-09T17:57:22.041Z,85.93
2019-03-09T17:59:54.649Z,86.35
2019-03-09T18:02:26.985Z,86.85
2019-03-09T18:04:59.367Z,87.34
2019-03-09T18:07:31.984Z,87.41
2019-03-09T18:10:06.158Z,87.07
2019-03-09T18:12:40.465Z,87.37
2019-03-09T18:15:13.155Z,86.70
2019-03-09T18:17:46.668Z,86.18
2019-03-09T18:20:18.802Z,84.47
2019-03-09T18:22:51.629Z,85.25
2019-03-09T18:25:25.984Z,85.93
2019-03-09T18:27:58.400Z,86.21
2019-03-09T18:30:30.765Z,86.81
2019-03-09T18:33:03.182Z,86.96
2019-03-09T18:35:35.863Z,85.52
2019-03-09T18:38:08.302Z,82.74
2019-03-09T18:40:40.667Z,82.72
2019-03-09T18:43:13.025Z,81.26
2019-03-09T18:45:45.401Z,82.88
2019-03-09T18:48:17.782Z,83.84
2019-03-09T18:50:50.248Z,83.75
2019-03-09T18:53:22.742Z,83.87
2019-03-09T18:55:59.146Z,84.06
2019-03-09T18:58:28.814Z,84.85
2019-03-09T19:01:02.581Z,85.12
2019-03-09T19:03:35.301Z,85.25
2019-03-09T19:06:07.659Z,85.21
2019-03-09T19:08:40.477Z,84.91
2019-03-09T19:11:12.378Z,84.99
2019-03-09T19:13:44.777Z,84.59
2019-03-09T19:16:17.152Z,83.25
2019-03-09T19:18:49.509Z,83.98
2019-03-09T19:21:21.884Z,81.67
2019-03-09T19:23:54.253Z,83.52
2019-03-09T19:26:26.641Z,83.29
2019-03-09T19:31:57.963Z,84.59
2019-03-09T19:34:34.778Z,84.65
2019-03-09T19:37:07.244Z,85.34
2019-03-09T19:39:39.618Z,85.26
2019-03-09T19:42:11.998Z,85.59
2019-03-09T19:44:44.376Z,86.10
2019-03-09T19:47:16.747Z,86.26
2019-03-09T19:49:49.104Z,86.69
2019-03-09T19:52:21.024Z,86.21
2019-03-09T19:54:53.436Z,86.67
2019-03-09T20:00:27.477Z,87.01
2019-03-09T20:02:59.846Z,87.50
2019-03-09T20:05:32.218Z,87.12
2019-03-09T20:11:19.800Z,88.07
2019-03-09T20:13:54.824Z,87.70
2019-03-09T20:19:38.783Z,88.74
2019-03-09T20:26:59.095Z,89.07
2019-03-09T20:29:31.454Z,89.41
2019-03-09T20:32:03.452Z,89.37
2019-03-09T20:34:44.199Z,89.28
2019-03-09T20:37:17.475Z,89.35
2019-03-09T20:39:53.707Z,89.57
2019-03-09T20:43:08.120Z,89.44
2019-03-09T20:45:48.979Z,89.43
2019-03-09T20:48:21.338Z,89.57
2019-03-09T20:50:53.783Z,89.63
2019-03-09T20:53:26.389Z,89.73
2019-03-09T20:55:58.760Z,89.13
2019-03-09T20:58:31.133Z,89.39
2019-03-09T21:01:03.518Z,89.18
2019-03-09T21:03:35.445Z,88.92
2019-03-09T21:06:07.861Z,88.95
2019-03-09T21:08:40.223Z,88.78
2019-03-09T21:11:12.595Z,89.54
2019-03-09T21:13:44.970Z,89.62
2019-03-09T21:16:17.350Z,90.08
2019-03-09T21:18:49.250Z,90.26
2019-03-09T21:21:22.090Z,90.60
2019-03-09T21:26:59.190Z,91.11
2019-03-09T21:29:31.555Z,91.20
2019-03-09T21:32:03.955Z,91.37
2019-03-09T21:37:30.066Z,92.09
2019-03-09T21:40:01.995Z,92.40
2019-03-09T21:42:34.400Z,92.67
2019-03-09T21:45:11.092Z,92.82
2019-03-09T21:47:43.387Z,92.97
2019-03-09T21:50:17.508Z,93.13
2019-03-09T21:52:49.938Z,93.21
2019-03-09T21:55:22.312Z,93.23
2019-03-09T21:57:54.684Z,93.28
2019-03-09T22:00:34.518Z,93.29
2019-03-09T22:03:08.747Z,93.28
2019-03-09T22:08:36.316Z,92.59
2019-03-09T22:11:08.684Z,92.05
2019-03-09T22:13:41.064Z,92.07
2019-03-09T22:16:13.427Z,91.86
2019-03-09T22:18:45.807Z,91.33
2019-03-09T22:21:18.174Z,91.43
2019-03-09T22:23:50.551Z,91.44
2019-03-09T22:26:24.066Z,91.43
2019-03-09T22:28:56.414Z,91.16
2019-03-09T22:31:28.799Z,90.98
2019-03-09T22:34:06.031Z,90.94
2019-03-09T22:37:08.689Z,91.05
2019-03-09T22:40:00.446Z,90.99
2019-03-09T22:42:42.014Z,91.30
2019-03-09T22:45:27.432Z,91.51
2019-03-09T22:48:00.734Z,91.75
2019-03-09T22:50:33.138Z,91.59
2019-03-09T22:53:05.494Z,91.43
2019-03-09T22:55:37.873Z,91.00
2019-03-09T22:58:10.228Z,91.02
2019-03-09T23:00:43.831Z,89.45
2019-03-09T23:03:17.993Z,89.29
2019-03-09T23:05:50.316Z,89.44
2019-03-09T23:08:22.698Z,89.49
2019-03-09T23:10:55.068Z,89.68
2019-03-09T23:13:28.453Z,89.70
2019-03-09T23:16:00.826Z,89.91
2019-03-09T23:18:33.981Z,89.78
2019-03-09T23:21:06.294Z,89.91
2019-03-09T23:23:38.658Z,89.32
2019-03-09T23:26:11.041Z,87.94
2019-03-09T23:28:48.147Z,86.55
2019-03-09T23:31:20.060Z,84.52
2019-03-09T23:33:52.449Z,84.37
2019-03-09T23:36:24.829Z,83.96
2019-03-09T23:38:57.198Z,83.49
2019-03-09T23:41:29.574Z,83.49
2019-03-09T23:44:01.935Z,81.83
2019-03-09T23:46:34.316Z,81.50
2019-03-09T23:49:06.687Z,80.02
2019-03-09T23:51:38.961Z,79.97
2019-03-09T23:54:11.329Z,81.47
2019-03-09T23:56:43.590Z,78.69
2019-03-09T23:59:15.967Z,78.61
